sensor_id;sensor_type;location;lat;lon;timestamp;P1;durP1;ratioP1;P2;durP2;ratioP2
20657;SDS011;10488;50.846;4.078;2023-04-30T00:00:11;39.90;;;24.85;;
20657;SDS011;10488;50.846;4.078;2023-04-30T00:02:37;40.55;;;24.33;;
20657;SDS011;10488;50.846;4.078;2023-04-30T00:05:03;36.50;;;24.98;;
20657;SDS011;10488;50.846;4.078;2023-04-30T00:07:29;41.75;;;26.20;;
20657;SDS011;10488;50.846;4.078;2023-04-30T00:09:56;40.10;;;26.60;;
20657;SDS011;10488;50.846;4.078;2023-04-30T00:12:21;44.40;;;26.63;;
20657;SDS011;10488;50.846;4.078;2023-04-30T00:14:47;44.85;;;26.83;;
20657;SDS011;10488;50.846;4.078;2023-04-30T00:17:13;43.88;;;28.02;;
20657;SDS011;10488;50.846;4.078;2023-04-30T00:19:40;46.42;;;28.90;;
20657;SDS011;10488;50.846;4.078;2023-04-30T00:22:06;42.58;;;25.23;;
20657;SDS011;10488;50.846;4.078;2023-04-30T00:24:32;45.65;;;26.77;;
20657;SDS011;10488;50.846;4.078;2023-04-30T00:26:58;44.13;;;26.50;;
20657;SDS011;10488;50.846;4.078;2023-04-30T00:29:23;39.17;;;25.38;;
20657;SDS011;10488;50.846;4.078;2023-04-30T00:31:49;43.58;;;26.58;;
20657;SDS011;10488;50.846;4.078;2023-04-30T00:34:15;43.40;;;24.63;;
20657;SDS011;10488;50.846;4.078;2023-04-30T00:36:40;35.72;;;24.20;;
20657;SDS011;10488;50.846;4.078;2023-04-30T00:39:06;38.17;;;23.92;;
20657;SDS011;10488;50.846;4.078;2023-04-30T00:41:33;36.35;;;22.70;;
20657;SDS011;10488;50.846;4.078;2023-04-30T00:43:59;33.22;;;20.98;;
20657;SDS011;10488;50.846;4.078;2023-04-30T00:46:27;33.33;;;18.40;;
20657;SDS011;10488;50.846;4.078;2023-04-30T00:48:53;28.05;;;15.85;;
20657;SDS011;10488;50.846;4.078;2023-04-30T00:51:18;25.08;;;15.55;;
20657;SDS011;10488;50.846;4.078;2023-04-30T00:53:44;23.58;;;14.25;;
20657;SDS011;10488;50.846;4.078;2023-04-30T00:56:11;21.55;;;13.70;;
20657;SDS011;10488;50.846;4.078;2023-04-30T00:58:40;25.80;;;14.02;;
20657;SDS011;10488;50.846;4.078;2023-04-30T01:01:06;21.35;;;13.88;;
20657;SDS011;10488;50.846;4.078;2023-04-30T01:03:32;19.65;;;13.25;;
20657;SDS011;10488;50.846;4.078;2023-04-30T01:06:00;21.05;;;13.25;;
20657;SDS011;10488;50.846;4.078;2023-04-30T01:08:28;24.05;;;13.50;;
20657;SDS011;10488;50.846;4.078;2023-04-30T01:13:49;21.25;;;12.63;;
20657;SDS011;10488;50.846;4.078;2023-04-30T01:16:27;18.08;;;12.20;;
20657;SDS011;10488;50.846;4.078;2023-04-30T01:18:58;22.05;;;10.43;;
20657;SDS011;10488;50.846;4.078;2023-04-30T01:21:29;16.30;;;11.00;;
20657;SDS011;10488;50.846;4.078;2023-04-30T01:26:52;16.60;;;9.23;;
20657;SDS011;10488;50.846;4.078;2023-04-30T01:29:44;17.33;;;10.07;;
20657;SDS011;10488;50.846;4.078;2023-04-30T01:32:09;17.00;;;10.07;;
20657;SDS011;10488;50.846;4.078;2023-04-30T01:34:36;22.35;;;10.45;;
20657;SDS011;10488;50.846;4.078;2023-04-30T01:37:07;20.00;;;9.85;;
20657;SDS011;10488;50.846;4.078;2023-04-30T01:50:57;22.33;;;13.10;;
20657;SDS011;10488;50.846;4.078;2023-04-30T01:53:51;21.63;;;13.88;;
20657;SDS011;10488;50.846;4.078;2023-04-30T01:56:31;24.95;;;15.70;;
20657;SDS011;10488;50.846;4.078;2023-04-30T01:59:04;24.75;;;15.40;;
20657;SDS011;10488;50.846;4.078;2023-04-30T02:01:30;26.20;;;15.68;;
20657;SDS011;10488;50.846;4.078;2023-04-30T02:03:57;24.42;;;15.90;;
20657;SDS011;10488;50.846;4.078;2023-04-30T02:06:23;31.65;;;15.85;;
20657;SDS011;10488;50.846;4.078;2023-04-30T02:08:52;22.35;;;14.40;;
20657;SDS011;10488;50.846;4.078;2023-04-30T02:11:19;23.10;;;15.85;;
20657;SDS011;10488;50.846;4.078;2023-04-30T02:13:45;23.13;;;15.75;;
20657;SDS011;10488;50.846;4.078;2023-04-30T02:16:11;24.90;;;14.73;;
20657;SDS011;10488;50.846;4.078;2023-04-30T02:18:36;25.63;;;15.90;;
20657;SDS011;10488;50.846;4.078;2023-04-30T02:21:02;22.83;;;14.77;;
20657;SDS011;10488;50.846;4.078;2023-04-30T02:23:28;23.38;;;14.20;;
20657;SDS011;10488;50.846;4.078;2023-04-30T02:25:53;34.08;;;16.52;;
20657;SDS011;10488;50.846;4.078;2023-04-30T02:28:19;23.77;;;15.48;;
20657;SDS011;10488;50.846;4.078;2023-04-30T02:30:45;24.45;;;16.30;;
20657;SDS011;10488;50.846;4.078;2023-04-30T02:33:10;22.60;;;14.50;;
20657;SDS011;10488;50.846;4.078;2023-04-30T02:35:36;24.95;;;14.93;;
20657;SDS011;10488;50.846;4.078;2023-04-30T02:38:05;22.50;;;15.13;;
20657;SDS011;10488;50.846;4.078;2023-04-30T02:40:30;25.08;;;14.52;;
20657;SDS011;10488;50.846;4.078;2023-04-30T02:42:56;22.30;;;15.02;;
20657;SDS011;10488;50.846;4.078;2023-04-30T02:45:22;27.10;;;14.73;;
20657;SDS011;10488;50.846;4.078;2023-04-30T02:47:47;21.40;;;14.70;;
20657;SDS011;10488;50.846;4.078;2023-04-30T02:50:13;21.52;;;14.48;;
20657;SDS011;10488;50.846;4.078;2023-04-30T02:52:39;24.42;;;14.18;;
20657;SDS011;10488;50.846;4.078;2023-04-30T02:55:05;21.10;;;13.43;;
20657;SDS011;10488;50.846;4.078;2023-04-30T02:57:31;21.88;;;14.23;;
20657;SDS011;10488;50.846;4.078;2023-04-30T02:59:57;20.23;;;13.48;;
20657;SDS011;10488;50.846;4.078;2023-04-30T03:02:22;21.50;;;12.63;;
20657;SDS011;10488;50.846;4.078;2023-04-30T03:04:48;22.50;;;13.27;;
20657;SDS011;10488;50.846;4.078;2023-04-30T03:07:14;18.55;;;13.88;;
20657;SDS011;10488;50.846;4.078;2023-04-30T03:09:40;20.52;;;13.25;;
20657;SDS011;10488;50.846;4.078;2023-04-30T03:12:06;18.60;;;11.77;;
20657;SDS011;10488;50.846;4.078;2023-04-30T03:14:31;20.23;;;12.43;;
20657;SDS011;10488;50.846;4.078;2023-04-30T03:16:57;18.42;;;11.90;;
20657;SDS011;10488;50.846;4.078;2023-04-30T03:19:22;20.08;;;12.60;;
20657;SDS011;10488;50.846;4.078;2023-04-30T03:21:53;19.15;;;11.18;;
20657;SDS011;10488;50.846;4.078;2023-04-30T03:24:19;19.90;;;12.40;;
20657;SDS011;10488;50.846;4.078;2023-04-30T03:26:45;24.42;;;15.30;;
20657;SDS011;10488;50.846;4.078;2023-04-30T03:29:11;22.95;;;13.45;;
20657;SDS011;10488;50.846;4.078;2023-04-30T03:31:37;23.15;;;12.60;;
20657;SDS011;10488;50.846;4.078;2023-04-30T03:34:02;23.48;;;14.15;;
20657;SDS011;10488;50.846;4.078;2023-04-30T03:36:28;24.95;;;14.63;;
20657;SDS011;10488;50.846;4.078;2023-04-30T03:38:54;22.92;;;13.38;;
20657;SDS011;10488;50.846;4.078;2023-04-30T03:41:19;23.02;;;13.68;;
20657;SDS011;10488;50.846;4.078;2023-04-30T03:43:45;19.17;;;11.13;;
20657;SDS011;10488;50.846;4.078;2023-04-30T03:46:11;16.92;;;11.65;;
20657;SDS011;10488;50.846;4.078;2023-04-30T03:48:36;18.55;;;11.32;;
20657;SDS011;10488;50.846;4.078;2023-04-30T03:51:02;18.70;;;11.93;;
20657;SDS011;10488;50.846;4.078;2023-04-30T03:53:28;17.52;;;12.00;;
20657;SDS011;10488;50.846;4.078;2023-04-30T03:55:53;18.00;;;11.88;;
20657;SDS011;10488;50.846;4.078;2023-04-30T03:58:20;19.45;;;11.75;;
20657;SDS011;10488;50.846;4.078;2023-04-30T04:00:46;19.80;;;11.60;;
20657;SDS011;10488;50.846;4.078;2023-04-30T04:03:12;22.27;;;10.93;;
20657;SDS011;10488;50.846;4.078;2023-04-30T04:05:41;21.08;;;11.68;;
20657;SDS011;10488;50.846;4.078;2023-04-30T04:08:07;21.35;;;12.35;;
20657;SDS011;10488;50.846;4.078;2023-04-30T04:10:33;20.02;;;12.75;;
20657;SDS011;10488;50.846;4.078;2023-04-30T04:12:59;19.13;;;12.60;;
20657;SDS011;10488;50.846;4.078;2023-04-30T04:15:25;20.77;;;13.60;;
20657;SDS011;10488;50.846;4.078;2023-04-30T04:17:50;18.75;;;13.15;;
20657;SDS011;10488;50.846;4.078;2023-04-30T04:20:16;21.95;;;12.70;;
20657;SDS011;10488;50.846;4.078;2023-04-30T04:22:42;20.73;;;13.82;;
20657;SDS011;10488;50.846;4.078;2023-04-30T04:25:08;20.52;;;13.68;;
20657;SDS011;10488;50.846;4.078;2023-04-30T04:27:34;19.08;;;12.25;;
20657;SDS011;10488;50.846;4.078;2023-04-30T04:30:03;23.33;;;13.18;;
20657;SDS011;10488;50.846;4.078;2023-04-30T04:32:29;24.05;;;14.10;;
20657;SDS011;10488;50.846;4.078;2023-04-30T04:34:56;24.00;;;14.00;;
20657;SDS011;10488;50.846;4.078;2023-04-30T04:37:22;22.77;;;12.90;;
20657;SDS011;10488;50.846;4.078;2023-04-30T04:39:48;22.42;;;14.07;;
20657;SDS011;10488;50.846;4.078;2023-04-30T04:42:14;21.75;;;13.80;;
20657;SDS011;10488;50.846;4.078;2023-04-30T04:44:44;23.13;;;13.23;;
20657;SDS011;10488;50.846;4.078;2023-04-30T04:47:09;23.15;;;13.77;;
20657;SDS011;10488;50.846;4.078;2023-04-30T04:49:36;20.60;;;13.38;;
20657;SDS011;10488;50.846;4.078;2023-04-30T04:52:02;24.52;;;13.57;;
20657;SDS011;10488;50.846;4.078;2023-04-30T04:54:29;18.98;;;11.60;;
20657;SDS011;10488;50.846;4.078;2023-04-30T04:56:55;18.67;;;11.65;;
20657;SDS011;10488;50.846;4.078;2023-04-30T04:59:21;20.30;;;11.95;;
20657;SDS011;10488;50.846;4.078;2023-04-30T05:01:47;18.98;;;11.00;;
20657;SDS011;10488;50.846;4.078;2023-04-30T05:04:12;19.55;;;11.68;;
20657;SDS011;10488;50.846;4.078;2023-04-30T05:06:38;18.05;;;12.18;;
20657;SDS011;10488;50.846;4.078;2023-04-30T05:09:04;17.80;;;11.45;;
20657;SDS011;10488;50.846;4.078;2023-04-30T05:11:33;20.58;;;12.18;;
20657;SDS011;10488;50.846;4.078;2023-04-30T05:13:58;17.30;;;11.00;;
20657;SDS011;10488;50.846;4.078;2023-04-30T05:16:24;16.55;;;10.80;;
20657;SDS011;10488;50.846;4.078;2023-04-30T05:18:50;17.52;;;10.52;;
20657;SDS011;10488;50.846;4.078;2023-04-30T05:21:16;23.55;;;12.80;;
20657;SDS011;10488;50.846;4.078;2023-04-30T05:23:42;20.02;;;12.23;;
20657;SDS011;10488;50.846;4.078;2023-04-30T05:26:09;20.92;;;13.05;;
20657;SDS011;10488;50.846;4.078;2023-04-30T05:28:35;17.52;;;11.63;;
20657;SDS011;10488;50.846;4.078;2023-04-30T05:31:00;19.10;;;11.10;;
20657;SDS011;10488;50.846;4.078;2023-04-30T05:33:26;18.17;;;11.48;;
20657;SDS011;10488;50.846;4.078;2023-04-30T05:35:51;16.02;;;10.32;;
20657;SDS011;10488;50.846;4.078;2023-04-30T05:38:17;14.32;;;9.65;;
20657;SDS011;10488;50.846;4.078;2023-04-30T05:40:43;19.52;;;11.63;;
20657;SDS011;10488;50.846;4.078;2023-04-30T05:43:08;17.48;;;9.77;;
20657;SDS011;10488;50.846;4.078;2023-04-30T05:45:34;13.65;;;9.07;;
20657;SDS011;10488;50.846;4.078;2023-04-30T05:48:00;15.23;;;7.95;;
20657;SDS011;10488;50.846;4.078;2023-04-30T05:50:26;16.58;;;9.20;;
20657;SDS011;10488;50.846;4.078;2023-04-30T05:52:51;16.75;;;9.95;;
20657;SDS011;10488;50.846;4.078;2023-04-30T05:55:17;12.80;;;9.23;;
20657;SDS011;10488;50.846;4.078;2023-04-30T05:57:42;14.35;;;8.65;;
20657;SDS011;10488;50.846;4.078;2023-04-30T06:00:08;10.63;;;8.30;;
20657;SDS011;10488;50.846;4.078;2023-04-30T06:02:34;12.00;;;9.40;;
20657;SDS011;10488;50.846;4.078;2023-04-30T06:05:00;14.90;;;9.48;;
20657;SDS011;10488;50.846;4.078;2023-04-30T06:07:27;13.68;;;9.30;;
20657;SDS011;10488;50.846;4.078;2023-04-30T06:09:53;18.42;;;10.48;;
20657;SDS011;10488;50.846;4.078;2023-04-30T06:12:18;11.02;;;9.48;;
20657;SDS011;10488;50.846;4.078;2023-04-30T06:14:44;14.48;;;10.45;;
20657;SDS011;10488;50.846;4.078;2023-04-30T06:17:11;14.93;;;10.82;;
20657;SDS011;10488;50.846;4.078;2023-04-30T06:19:37;15.30;;;11.05;;
20657;SDS011;10488;50.846;4.078;2023-04-30T06:22:03;17.55;;;10.32;;
20657;SDS011;10488;50.846;4.078;2023-04-30T06:24:28;15.25;;;10.13;;
20657;SDS011;10488;50.846;4.078;2023-04-30T06:26:54;12.48;;;9.55;;
20657;SDS011;10488;50.846;4.078;2023-04-30T06:29:20;16.45;;;11.18;;
20657;SDS011;10488;50.846;4.078;2023-04-30T06:31:48;14.20;;;9.40;;
20657;SDS011;10488;50.846;4.078;2023-04-30T06:34:15;15.35;;;10.00;;
20657;SDS011;10488;50.846;4.078;2023-04-30T06:36:41;13.20;;;10.02;;
20657;SDS011;10488;50.846;4.078;2023-04-30T06:39:07;12.45;;;10.00;;
20657;SDS011;10488;50.846;4.078;2023-04-30T06:41:32;15.77;;;10.73;;
20657;SDS011;10488;50.846;4.078;2023-04-30T06:43:58;17.38;;;11.65;;
20657;SDS011;10488;50.846;4.078;2023-04-30T06:46:24;16.02;;;11.02;;
20657;SDS011;10488;50.846;4.078;2023-04-30T06:48:50;14.02;;;10.93;;
20657;SDS011;10488;50.846;4.078;2023-04-30T06:51:15;15.45;;;11.90;;
20657;SDS011;10488;50.846;4.078;2023-04-30T06:53:41;14.85;;;11.68;;
20657;SDS011;10488;50.846;4.078;2023-04-30T06:56:07;17.05;;;11.32;;
20657;SDS011;10488;50.846;4.078;2023-04-30T06:58:32;17.88;;;12.95;;
20657;SDS011;10488;50.846;4.078;2023-04-30T07:00:58;15.80;;;11.52;;
20657;SDS011;10488;50.846;4.078;2023-04-30T07:03:24;17.20;;;12.27;;
20657;SDS011;10488;50.846;4.078;2023-04-30T07:05:51;18.92;;;12.77;;
20657;SDS011;10488;50.846;4.078;2023-04-30T07:08:18;18.73;;;12.55;;
20657;SDS011;10488;50.846;4.078;2023-04-30T07:10:43;18.90;;;13.30;;
20657;SDS011;10488;50.846;4.078;2023-04-30T07:13:09;21.10;;;13.68;;
20657;SDS011;10488;50.846;4.078;2023-04-30T07:15:35;18.85;;;13.52;;
20657;SDS011;10488;50.846;4.078;2023-04-30T07:18:01;17.92;;;13.27;;
20657;SDS011;10488;50.846;4.078;2023-04-30T07:20:28;19.75;;;13.38;;
20657;SDS011;10488;50.846;4.078;2023-04-30T07:22:54;17.70;;;12.88;;
20657;SDS011;10488;50.846;4.078;2023-04-30T07:25:20;18.92;;;13.30;;
20657;SDS011;10488;50.846;4.078;2023-04-30T07:27:45;19.60;;;13.05;;
20657;SDS011;10488;50.846;4.078;2023-04-30T07:30:11;18.45;;;12.88;;
20657;SDS011;10488;50.846;4.078;2023-04-30T07:32:37;16.27;;;13.02;;
20657;SDS011;10488;50.846;4.078;2023-04-30T07:35:04;16.33;;;13.13;;
20657;SDS011;10488;50.846;4.078;2023-04-30T07:37:31;16.55;;;13.18;;
20657;SDS011;10488;50.846;4.078;2023-04-30T07:39:56;19.23;;;13.25;;
20657;SDS011;10488;50.846;4.078;2023-04-30T07:42:22;17.08;;;13.90;;
20657;SDS011;10488;50.846;4.078;2023-04-30T07:44:48;20.80;;;14.45;;
20657;SDS011;10488;50.846;4.078;2023-04-30T07:47:14;20.48;;;14.88;;
20657;SDS011;10488;50.846;4.078;2023-04-30T07:49:40;17.70;;;13.77;;
20657;SDS011;10488;50.846;4.078;2023-04-30T07:52:05;18.90;;;14.88;;
20657;SDS011;10488;50.846;4.078;2023-04-30T07:54:35;17.95;;;12.88;;
20657;SDS011;10488;50.846;4.078;2023-04-30T07:57:02;20.13;;;14.68;;
20657;SDS011;10488;50.846;4.078;2023-04-30T07:59:29;21.20;;;15.77;;
20657;SDS011;10488;50.846;4.078;2023-04-30T08:01:55;20.23;;;14.27;;
20657;SDS011;10488;50.846;4.078;2023-04-30T08:04:21;22.45;;;14.63;;
20657;SDS011;10488;50.846;4.078;2023-04-30T08:06:46;19.58;;;14.00;;
20657;SDS011;10488;50.846;4.078;2023-04-30T08:09:12;19.77;;;14.27;;
20657;SDS011;10488;50.846;4.078;2023-04-30T08:11:37;19.85;;;15.38;;
20657;SDS011;10488;50.846;4.078;2023-04-30T08:14:03;20.17;;;15.27;;
20657;SDS011;10488;50.846;4.078;2023-04-30T08:16:30;25.40;;;15.75;;
20657;SDS011;10488;50.846;4.078;2023-04-30T08:18:56;20.92;;;15.23;;
20657;SDS011;10488;50.846;4.078;2023-04-30T08:21:23;17.88;;;14.50;;
20657;SDS011;10488;50.846;4.078;2023-04-30T08:23:49;22.08;;;15.30;;
20657;SDS011;10488;50.846;4.078;2023-04-30T08:26:15;20.95;;;16.52;;
20657;SDS011;10488;50.846;4.078;2023-04-30T08:28:45;20.92;;;15.57;;
20657;SDS011;10488;50.846;4.078;2023-04-30T08:31:11;23.33;;;16.33;;
20657;SDS011;10488;50.846;4.078;2023-04-30T08:33:37;20.48;;;14.63;;
20657;SDS011;10488;50.846;4.078;2023-04-30T08:36:03;20.80;;;14.57;;
20657;SDS011;10488;50.846;4.078;2023-04-30T08:38:28;22.75;;;15.98;;
20657;SDS011;10488;50.846;4.078;2023-04-30T08:41:03;18.00;;;15.60;;
20657;SDS011;10488;50.846;4.078;2023-04-30T08:43:33;22.75;;;14.88;;
20657;SDS011;10488;50.846;4.078;2023-04-30T08:46:01;20.35;;;14.32;;
20657;SDS011;10488;50.846;4.078;2023-04-30T08:48:29;17.65;;;13.70;;
20657;SDS011;10488;50.846;4.078;2023-04-30T08:50:58;18.23;;;13.73;;
20657;SDS011;10488;50.846;4.078;2023-04-30T08:53:25;20.10;;;12.75;;
20657;SDS011;10488;50.846;4.078;2023-04-30T08:55:51;14.30;;;11.27;;
20657;SDS011;10488;50.846;4.078;2023-04-30T08:58:16;18.27;;;13.15;;
20657;SDS011;10488;50.846;4.078;2023-04-30T09:00:42;15.48;;;13.23;;
20657;SDS011;10488;50.846;4.078;2023-04-30T09:03:08;19.38;;;12.98;;
20657;SDS011;10488;50.846;4.078;2023-04-30T09:05:34;20.70;;;13.98;;
20657;SDS011;10488;50.846;4.078;2023-04-30T09:08:01;16.67;;;12.68;;
20657;SDS011;10488;50.846;4.078;2023-04-30T09:10:27;16.25;;;11.50;;
20657;SDS011;10488;50.846;4.078;2023-04-30T09:12:59;16.70;;;12.38;;
20657;SDS011;10488;50.846;4.078;2023-04-30T09:15:33;14.48;;;11.77;;
20657;SDS011;10488;50.846;4.078;2023-04-30T09:18:07;15.65;;;11.30;;
20657;SDS011;10488;50.846;4.078;2023-04-30T09:20:36;12.95;;;10.07;;
20657;SDS011;10488;50.846;4.078;2023-04-30T09:23:08;14.63;;;9.82;;
20657;SDS011;10488;50.846;4.078;2023-04-30T09:25:41;12.48;;;9.40;;
20657;SDS011;10488;50.846;4.078;2023-04-30T09:28:11;10.80;;;9.10;;
20657;SDS011;10488;50.846;4.078;2023-04-30T09:30:38;13.77;;;9.40;;
20657;SDS011;10488;50.846;4.078;2023-04-30T09:33:05;13.80;;;9.30;;
20657;SDS011;10488;50.846;4.078;2023-04-30T09:35:39;14.93;;;8.90;;
20657;SDS011;10488;50.846;4.078;2023-04-30T09:38:24;11.02;;;8.52;;
20657;SDS011;10488;50.846;4.078;2023-04-30T09:40:54;12.95;;;8.18;;
20657;SDS011;10488;50.846;4.078;2023-04-30T09:43:21;15.80;;;9.40;;
20657;SDS011;10488;50.846;4.078;2023-04-30T09:45:48;13.20;;;9.23;;
20657;SDS011;10488;50.846;4.078;2023-04-30T09:48:16;12.10;;;8.75;;
20657;SDS011;10488;50.846;4.078;2023-04-30T09:50:42;11.43;;;8.30;;
20657;SDS011;10488;50.846;4.078;2023-04-30T09:53:09;13.27;;;8.65;;
20657;SDS011;10488;50.846;4.078;2023-04-30T09:55:38;12.25;;;9.35;;
20657;SDS011;10488;50.846;4.078;2023-04-30T09:58:07;14.15;;;9.15;;
20657;SDS011;10488;50.846;4.078;2023-04-30T10:00:35;14.50;;;8.98;;
20657;SDS011;10488;50.846;4.078;2023-04-30T10:03:05;12.80;;;8.68;;
20657;SDS011;10488;50.846;4.078;2023-04-30T10:05:45;12.50;;;9.15;;
20657;SDS011;10488;50.846;4.078;2023-04-30T10:08:24;11.60;;;9.05;;
20657;SDS011;10488;50.846;4.078;2023-04-30T10:11:04;12.73;;;8.55;;
20657;SDS011;10488;50.846;4.078;2023-04-30T10:14:16;13.07;;;9.38;;
20657;SDS011;10488;50.846;4.078;2023-04-30T10:19:16;11.77;;;9.25;;
20657;SDS011;10488;50.846;4.078;2023-04-30T10:21:45;13.65;;;9.27;;
20657;SDS011;10488;50.846;4.078;2023-04-30T10:24:14;11.38;;;8.23;;
20657;SDS011;10488;50.846;4.078;2023-04-30T10:26:44;11.77;;;8.70;;
20657;SDS011;10488;50.846;4.078;2023-04-30T10:29:14;14.85;;;10.07;;
20657;SDS011;10488;50.846;4.078;2023-04-30T10:31:42;13.45;;;9.55;;
20657;SDS011;10488;50.846;4.078;2023-04-30T10:36:58;14.00;;;9.43;;
20657;SDS011;10488;50.846;4.078;2023-04-30T10:39:28;12.20;;;8.60;;
20657;SDS011;10488;50.846;4.078;2023-04-30T10:42:01;11.35;;;9.05;;
20657;SDS011;10488;50.846;4.078;2023-04-30T10:44:31;14.93;;;9.60;;
20657;SDS011;10488;50.846;4.078;2023-04-30T10:46:58;13.55;;;9.60;;
20657;SDS011;10488;50.846;4.078;2023-04-30T10:49:28;15.25;;;9.48;;
20657;SDS011;10488;50.846;4.078;2023-04-30T10:51:55;13.30;;;8.65;;
20657;SDS011;10488;50.846;4.078;2023-04-30T10:54:25;12.27;;;8.95;;
20657;SDS011;10488;50.846;4.078;2023-04-30T10:57:15;13.05;;;9.50;;
20657;SDS011;10488;50.846;4.078;2023-04-30T10:59:50;13.52;;;8.70;;
20657;SDS011;10488;50.846;4.078;2023-04-30T11:02:16;11.55;;;8.00;;
20657;SDS011;10488;50.846;4.078;2023-04-30T11:07:48;15.18;;;8.60;;
20657;SDS011;10488;50.846;4.078;2023-04-30T11:10:21;13.38;;;8.93;;
20657;SDS011;10488;50.846;4.078;2023-04-30T11:12:49;10.18;;;8.48;;
20657;SDS011;10488;50.846;4.078;2023-04-30T11:15:17;13.68;;;7.15;;
20657;SDS011;10488;50.846;4.078;2023-04-30T11:17:51;9.43;;;6.85;;
20657;SDS011;10488;50.846;4.078;2023-04-30T11:20:23;12.60;;;8.85;;
20657;SDS011;10488;50.846;4.078;2023-04-30T11:25:42;12.65;;;7.78;;
20657;SDS011;10488;50.846;4.078;2023-04-30T11:28:18;10.55;;;8.00;;
20657;SDS011;10488;50.846;4.078;2023-04-30T11:30:54;11.05;;;7.38;;
20657;SDS011;10488;50.846;4.078;2023-04-30T11:33:22;8.20;;;7.22;;
20657;SDS011;10488;50.846;4.078;2023-04-30T11:35:49;9.05;;;7.45;;
20657;SDS011;10488;50.846;4.078;2023-04-30T11:38:18;9.18;;;7.43;;
20657;SDS011;10488;50.846;4.078;2023-04-30T11:40:46;8.15;;;6.47;;
20657;SDS011;10488;50.846;4.078;2023-04-30T11:43:24;8.68;;;6.07;;
20657;SDS011;10488;50.846;4.078;2023-04-30T11:45:58;9.23;;;6.00;;
20657;SDS011;10488;50.846;4.078;2023-04-30T11:48:39;10.63;;;6.40;;
20657;SDS011;10488;50.846;4.078;2023-04-30T11:53:42;6.35;;;5.70;;
20657;SDS011;10488;50.846;4.078;2023-04-30T11:56:09;7.60;;;6.30;;
20657;SDS011;10488;50.846;4.078;2023-04-30T11:58:35;9.05;;;5.57;;
20657;SDS011;10488;50.846;4.078;2023-04-30T12:01:07;7.93;;;5.03;;
20657;SDS011;10488;50.846;4.078;2023-04-30T12:03:44;6.75;;;5.10;;
20657;SDS011;10488;50.846;4.078;2023-04-30T12:06:20;5.35;;;4.28;;
20657;SDS011;10488;50.846;4.078;2023-04-30T12:08:52;7.43;;;5.10;;
20657;SDS011;10488;50.846;4.078;2023-04-30T12:11:25;8.27;;;5.22;;
20657;SDS011;10488;50.846;4.078;2023-04-30T12:13:57;6.45;;;5.00;;
20657;SDS011;10488;50.846;4.078;2023-04-30T12:16:27;7.07;;;5.25;;
20657;SDS011;10488;50.846;4.078;2023-04-30T12:19:02;8.57;;;5.32;;
20657;SDS011;10488;50.846;4.078;2023-04-30T12:21:28;8.95;;;4.75;;
20657;SDS011;10488;50.846;4.078;2023-04-30T12:23:54;7.95;;;5.25;;
20657;SDS011;10488;50.846;4.078;2023-04-30T12:26:19;6.90;;;4.72;;
20657;SDS011;10488;50.846;4.078;2023-04-30T12:28:46;6.72;;;4.60;;
20657;SDS011;10488;50.846;4.078;2023-04-30T12:31:13;5.20;;;3.95;;
20657;SDS011;10488;50.846;4.078;2023-04-30T12:33:42;5.38;;;4.10;;
20657;SDS011;10488;50.846;4.078;2023-04-30T12:36:11;4.55;;;3.53;;
20657;SDS011;10488;50.846;4.078;2023-04-30T12:38:41;4.88;;;3.70;;
20657;SDS011;10488;50.846;4.078;2023-04-30T12:41:10;7.47;;;4.75;;
20657;SDS011;10488;50.846;4.078;2023-04-30T12:43:39;5.75;;;3.53;;
20657;SDS011;10488;50.846;4.078;2023-04-30T12:46:05;4.68;;;3.65;;
20657;SDS011;10488;50.846;4.078;2023-04-30T12:48:41;3.40;;;3.08;;
20657;SDS011;10488;50.846;4.078;2023-04-30T12:51:08;7.05;;;3.53;;
20657;SDS011;10488;50.846;4.078;2023-04-30T12:53:34;4.63;;;3.40;;
20657;SDS011;10488;50.846;4.078;2023-04-30T12:58:41;6.97;;;3.78;;
20657;SDS011;10488;50.846;4.078;2023-04-30T13:01:12;6.57;;;4.00;;
20657;SDS011;10488;50.846;4.078;2023-04-30T13:03:41;4.45;;;3.60;;
20657;SDS011;10488;50.846;4.078;2023-04-30T13:06:06;5.05;;;3.33;;
20657;SDS011;10488;50.846;4.078;2023-04-30T13:08:34;4.28;;;3.65;;
20657;SDS011;10488;50.846;4.078;2023-04-30T13:10:59;3.85;;;3.47;;
20657;SDS011;10488;50.846;4.078;2023-04-30T13:13:25;6.40;;;3.67;;
20657;SDS011;10488;50.846;4.078;2023-04-30T13:15:51;5.15;;;3.72;;
20657;SDS011;10488;50.846;4.078;2023-04-30T13:18:17;8.52;;;3.80;;
20657;SDS011;10488;50.846;4.078;2023-04-30T13:20:43;5.85;;;3.75;;
20657;SDS011;10488;50.846;4.078;2023-04-30T13:23:09;4.95;;;3.50;;
20657;SDS011;10488;50.846;4.078;2023-04-30T13:25:36;4.75;;;3.42;;
20657;SDS011;10488;50.846;4.078;2023-04-30T13:28:02;6.63;;;3.50;;
20657;SDS011;10488;50.846;4.078;2023-04-30T13:30:28;6.82;;;4.22;;
20657;SDS011;10488;50.846;4.078;2023-04-30T13:32:54;5.93;;;3.63;;
20657;SDS011;10488;50.846;4.078;2023-04-30T13:35:19;4.57;;;3.95;;
20657;SDS011;10488;50.846;4.078;2023-04-30T13:37:45;5.93;;;4.57;;
20657;SDS011;10488;50.846;4.078;2023-04-30T13:40:16;7.95;;;4.65;;
20657;SDS011;10488;50.846;4.078;2023-04-30T13:42:44;8.15;;;6.18;;
20657;SDS011;10488;50.846;4.078;2023-04-30T13:45:10;4.70;;;4.15;;
20657;SDS011;10488;50.846;4.078;2023-04-30T13:47:36;4.88;;;3.83;;
20657;SDS011;10488;50.846;4.078;2023-04-30T13:50:02;6.93;;;4.10;;
20657;SDS011;10488;50.846;4.078;2023-04-30T13:52:29;6.28;;;3.58;;
20657;SDS011;10488;50.846;4.078;2023-04-30T13:54:55;6.38;;;3.85;;
20657;SDS011;10488;50.846;4.078;2023-04-30T13:57:21;5.30;;;3.85;;
20657;SDS011;10488;50.846;4.078;2023-04-30T13:59:48;4.50;;;3.60;;
20657;SDS011;10488;50.846;4.078;2023-04-30T14:02:13;5.43;;;4.22;;
20657;SDS011;10488;50.846;4.078;2023-04-30T14:04:39;5.63;;;4.03;;
20657;SDS011;10488;50.846;4.078;2023-04-30T14:07:05;4.72;;;3.30;;
20657;SDS011;10488;50.846;4.078;2023-04-30T14:09:31;4.13;;;3.53;;
20657;SDS011;10488;50.846;4.078;2023-04-30T14:11:56;7.22;;;4.07;;
20657;SDS011;10488;50.846;4.078;2023-04-30T14:14:26;6.40;;;3.85;;
20657;SDS011;10488;50.846;4.078;2023-04-30T14:16:52;4.63;;;3.28;;
20657;SDS011;10488;50.846;4.078;2023-04-30T14:19:18;5.85;;;3.42;;
20657;SDS011;10488;50.846;4.078;2023-04-30T14:21:44;3.67;;;2.80;;
20657;SDS011;10488;50.846;4.078;2023-04-30T14:24:10;4.93;;;3.30;;
20657;SDS011;10488;50.846;4.078;2023-04-30T14:26:37;4.20;;;2.88;;
20657;SDS011;10488;50.846;4.078;2023-04-30T14:29:04;4.25;;;2.80;;
20657;SDS011;10488;50.846;4.078;2023-04-30T14:31:30;4.43;;;2.95;;
20657;SDS011;10488;50.846;4.078;2023-04-30T14:33:56;2.53;;;2.30;;
20657;SDS011;10488;50.846;4.078;2023-04-30T14:36:23;4.07;;;2.60;;
20657;SDS011;10488;50.846;4.078;2023-04-30T14:38:49;6.10;;;2.47;;
20657;SDS011;10488;50.846;4.078;2023-04-30T14:41:14;3.83;;;2.40;;
20657;SDS011;10488;50.846;4.078;2023-04-30T14:43:40;2.83;;;2.10;;
20657;SDS011;10488;50.846;4.078;2023-04-30T14:46:06;2.80;;;1.98;;
20657;SDS011;10488;50.846;4.078;2023-04-30T14:48:31;1.77;;;1.67;;
20657;SDS011;10488;50.846;4.078;2023-04-30T14:50:57;3.45;;;1.63;;
20657;SDS011;10488;50.846;4.078;2023-04-30T14:53:25;2.92;;;2.47;;
20657;SDS011;10488;50.846;4.078;2023-04-30T14:55:50;3.88;;;1.90;;
20657;SDS011;10488;50.846;4.078;2023-04-30T14:58:16;2.78;;;2.42;;
20657;SDS011;10488;50.846;4.078;2023-04-30T15:00:44;5.22;;;2.50;;
20657;SDS011;10488;50.846;4.078;2023-04-30T15:03:11;3.53;;;2.55;;
20657;SDS011;10488;50.846;4.078;2023-04-30T15:05:36;2.88;;;2.20;;